Terminal Aerodrome Forecast
Issued by NWS Pocatello, ID

Home | Current Version | Previous Version | Text Only | Print | Product List | Glossary On
Versions: 1 2 3 4 5 6 7 8 9 10 11 12 13 14 15 16
603
FTUS45 KPIH 230520
TAFBYI
TAF
KBYI 230520Z 2306/2406 23008KT P6SM SCT060
     FM231200 22007KT P6SM SCT008
     FM231800 28008KT P6SM SKC=

USA.gov is the U.S. government's official web portal to all federal, state and local government web resources and services.